Time;durP1;ratioP1;P1;durP2;ratioP2;P2;SDS_P1;SDS_P2;PMS_P1;PMS_P2;Temp;Humidity;BMP_temperature;BMP_pressure;BME280_temperature;BME280_humidity;BME280_pressure;Samples;Min_cycle;Max_cycle;Signal;HPM_P1;HPM_P2
2023/11/20 00:09:24;;;;;;;1.10;1.00;;;;;;;6.69;100.00;98839.59;31231488;28;20484;-77
2023/11/20 00:24:26;;;;;;;1.90;1.40;;;;;;;6.72;100.00;98852.22;31213601;28;20053;-76
2023/11/20 00:39:29;;;;;;;1.60;1.30;;;;;;;6.81;100.00;98855.09;31229520;28;20056;-76
2023/11/20 00:54:32;;;;;;;1.80;1.40;;;;;;;6.65;100.00;98847.00;31222041;28;20103;-77
2023/11/20 01:09:34;;;;;;;2.33;1.40;;;;;;;6.90;100.00;98851.78;31227015;28;20088;-78
2023/11/20 01:24:37;;;;;;;1.27;1.17;;;;;;;6.86;100.00;98859.97;31236266;28;20045;-77
2023/11/20 01:39:39;;;;;;;0.97;0.90;;;;;;;7.01;100.00;98860.41;31234224;28;20159;-77
2023/11/20 01:54:42;;;;;;;1.30;1.20;;;;;;;7.15;100.00;98871.56;31229787;28;20103;-77
2023/11/20 02:09:45;;;;;;;1.60;1.50;;;;;;;6.81;100.00;98879.38;31246351;28;20056;-77
2023/11/20 02:24:48;;;;;;;2.73;1.80;;;;;;;6.84;100.00;98876.59;31251588;28;21093;-77
2023/11/20 02:39:51;;;;;;;1.53;1.20;;;;;;;6.97;100.00;98862.41;31243430;28;20144;-78
2023/11/20 02:54:53;;;;;;;1.27;1.10;;;;;;;6.93;100.00;98862.50;31232012;28;20045;-76
2023/11/20 03:09:55;;;;;;;1.40;1.07;;;;;;;6.99;100.00;98865.44;31216820;28;20057;-78
2023/11/20 03:24:57;;;;;;;1.30;1.10;;;;;;;6.99;100.00;98866.22;31223612;28;20061;-77
2023/11/20 03:39:59;;;;;;;2.57;1.30;;;;;;;6.80;100.00;98859.75;31195352;28;20046;-77
2023/11/20 03:55:02;;;;;;;1.00;1.00;;;;;;;6.66;100.00;98851.22;31202786;28;20065;-75
2023/11/20 04:10:05;;;;;;;0.90;0.90;;;;;;;6.56;100.00;98844.16;31222271;28;20053;-75
2023/11/20 04:25:07;;;;;;;1.90;1.50;;;;;;;6.64;100.00;98842.78;31215634;28;20045;-76
2023/11/20 04:40:10;;;;;;;1.77;1.30;;;;;;;6.72;100.00;98847.59;31198190;28;20107;-75
2023/11/20 04:55:12;;;;;;;2.23;1.47;;;;;;;6.68;100.00;98851.56;31210253;28;20046;-77
2023/11/20 05:10:15;;;;;;;1.93;1.50;;;;;;;6.68;100.00;98873.88;31199649;28;20057;-75
2023/11/20 05:25:17;;;;;;;3.80;2.57;;;;;;;6.62;100.00;98890.97;31233363;28;20053;-74
2023/11/20 05:40:20;;;;;;;3.27;2.13;;;;;;;6.56;100.00;98903.47;31228229;28;20057;-77
2023/11/20 05:55:22;;;;;;;2.90;2.10;;;;;;;6.50;100.00;98903.97;31244789;28;20069;-78
2023/11/20 06:10:24;;;;;;;2.60;1.87;;;;;;;6.51;100.00;98910.13;31234049;28;20680;-76
2023/11/20 06:25:26;;;;;;;4.47;2.70;;;;;;;6.54;100.00;98922.00;31227502;28;20082;-74
2023/11/20 06:40:28;;;;;;;3.97;2.73;;;;;;;6.39;100.00;98933.06;31210736;28;20073;-75
2023/11/20 06:55:30;;;;;;;5.63;3.50;;;;;;;6.45;100.00;98946.81;31218956;28;20045;-76
2023/11/20 07:10:32;;;;;;;9.27;4.93;;;;;;;6.62;100.00;98963.78;31224533;28;20052;-79
2023/11/20 07:25:34;;;;;;;10.17;5.73;;;;;;;6.47;100.00;98979.53;31249622;28;20403;-81
2023/11/20 07:40:36;;;;;;;10.30;5.40;;;;;;;6.68;100.00;99002.56;31238169;28;20111;-76
2023/11/20 07:55:38;;;;;;;7.57;4.47;;;;;;;7.11;100.00;99008.53;31218297;28;20140;-79
2023/11/20 08:10:41;;;;;;;6.93;4.50;;;;;;;7.22;100.00;99021.03;31208506;28;20049;-79
2023/11/20 08:25:43;;;;;;;6.00;3.73;;;;;;;7.31;100.00;99021.22;31226424;28;20081;-77
2023/11/20 08:40:46;;;;;;;6.27;4.43;;;;;;;6.97;100.00;99006.19;31210220;28;20080;-78
2023/11/20 08:55:48;;;;;;;8.30;4.90;;;;;;;6.82;100.00;98986.09;31214093;28;20472;-75
2023/11/20 09:10:50;;;;;;;11.93;7.40;;;;;;;6.82;100.00;99021.16;31235543;28;20069;-77
2023/11/20 09:25:53;;;;;;;17.17;9.10;;;;;;;6.59;100.00;99011.25;31232973;28;20414;-76
2023/11/20 09:40:58;;;;;;;17.23;8.13;;;;;;;6.74;100.00;99012.47;31215827;28;20515;-77
2023/11/20 09:56:04;;;;;;;12.40;8.33;;;;;;;6.80;100.00;99023.53;31210867;28;20064;-76
2023/11/20 10:11:07;;;;;;;13.77;7.80;;;;;;;6.81;100.00;99025.81;31231537;28;20089;-78
2023/11/20 10:26:10;;;;;;;6.27;4.23;;;;;;;6.46;100.00;99018.44;31219864;28;20046;-77
2023/11/20 10:41:13;;;;;;;9.33;5.90;;;;;;;6.28;100.00;99008.03;31235745;28;20088;-79
2023/11/20 10:56:15;;;;;;;6.10;4.43;;;;;;;6.62;100.00;99009.63;31203353;28;20146;-77
2023/11/20 11:11:20;;;;;;;11.53;6.97;;;;;;;6.52;100.00;98989.81;31218728;28;20085;-75
2023/11/20 11:26:36;;;;;;;17.33;9.00;;;;;;;6.30;100.00;98994.91;31214891;28;20204;-77
2023/11/20 11:41:46;;;;;;;11.00;6.47;;;;;;;6.02;100.00;99015.06;31231187;28;20136;-78
2023/11/20 11:56:59;;;;;;;14.67;8.30;;;;;;;5.87;100.00;99032.63;31216152;28;20108;-79
2023/11/20 12:12:01;;;;;;;12.80;7.50;;;;;;;6.18;100.00;99052.09;31230825;28;20053;-80
2023/11/20 12:27:03;;;;;;;20.20;9.83;;;;;;;6.15;100.00;99063.69;31221773;28;20053;-78
2023/11/20 12:42:06;;;;;;;21.73;9.93;;;;;;;6.13;100.00;99101.09;31193159;28;20053;-78
2023/11/20 12:57:08;;;;;;;20.97;10.10;;;;;;;5.94;100.00;99124.09;31214302;28;20131;-80
2023/11/20 13:12:12;;;;;;;19.53;9.27;;;;;;;6.13;100.00;99158.44;31229788;28;20582;-77
2023/11/20 13:27:14;;;;;;;29.47;11.90;;;;;;;6.02;100.00;99184.03;31200736;28;20089;-78
2023/11/20 13:42:16;;;;;;;19.70;11.63;;;;;;;6.01;100.00;99207.50;31229675;28;20041;-76
2023/11/20 13:57:18;;;;;;;11.93;7.00;;;;;;;5.81;98.99;99237.03;31247436;28;20064;-78
2023/11/20 14:12:20;;;;;;;14.83;7.07;;;;;;;5.86;99.43;99251.22;31212108;28;20246;-78
2023/11/20 14:27:22;;;;;;;10.80;6.53;;;;;;;5.73;100.00;99270.59;31240290;28;20402;-80
2023/11/20 14:42:24;;;;;;;9.43;6.50;;;;;;;5.90;100.00;99273.50;31234999;28;20076;-77
2023/11/20 14:57:26;;;;;;;11.27;6.60;;;;;;;6.03;99.63;99291.41;31264954;28;20064;-79
2023/11/20 15:12:30;;;;;;;12.90;6.87;;;;;;;5.49;98.17;99298.59;31246542;28;20058;-81
2023/11/20 15:27:32;;;;;;;10.33;6.93;;;;;;;5.64;100.00;99304.59;31237452;28;20495;-78
2023/11/20 15:42:43;;;;;;;11.20;5.93;;;;;;;5.47;99.43;99317.84;31229063;28;20507;-78
2023/11/20 15:57:45;;;;;;;11.83;6.47;;;;;;;5.58;98.05;99315.03;31233950;28;20104;-77
2023/11/20 16:12:48;;;;;;;7.33;5.07;;;;;;;5.37;95.68;99332.22;31228074;28;20057;-80
2023/11/20 16:27:50;;;;;;;9.90;6.43;;;;;;;5.32;98.82;99342.63;31216529;28;20414;-77
2023/11/20 16:43:00;;;;;;;7.87;5.00;;;;;;;5.39;100.00;99342.56;31219924;28;20049;-78
2023/11/20 16:58:03;;;;;;;8.03;5.40;;;;;;;5.60;98.88;99358.50;31183802;28;20067;-80
2023/11/20 17:13:05;;;;;;;8.30;4.67;;;;;;;5.31;93.64;99374.16;31224812;28;20053;-77
2023/11/20 17:28:07;;;;;;;5.73;4.63;;;;;;;5.45;93.80;99384.00;31238191;28;20088;-78
2023/11/20 17:43:09;;;;;;;8.37;5.27;;;;;;;5.65;96.00;99403.81;31244676;28;20049;-77
2023/11/20 17:58:12;;;;;;;12.77;5.87;;;;;;;5.45;95.33;99405.56;31232097;28;20072;-82
2023/11/20 18:13:14;;;;;;;8.20;4.90;;;;;;;5.33;92.10;99414.16;31231652;28;20057;-75
2023/11/20 18:28:17;;;;;;;15.60;7.73;;;;;;;5.43;93.34;99430.19;31212162;28;20058;-79
2023/11/20 18:43:19;;;;;;;7.47;5.43;;;;;;;5.42;94.20;99444.06;31225888;28;20053;-78
2023/11/20 18:58:22;;;;;;;6.77;4.93;;;;;;;5.39;92.06;99461.00;31232788;28;20057;-77
2023/11/20 19:13:24;;;;;;;10.63;5.57;;;;;;;5.38;90.23;99470.25;31225843;28;20050;-78
2023/11/20 19:28:26;;;;;;;7.87;4.63;;;;;;;5.30;91.07;99487.59;31213573;28;20119;-78
2023/11/20 19:43:28;;;;;;;10.20;6.33;;;;;;;5.38;92.43;99494.47;31231035;28;20510;-76
2023/11/20 19:58:31;;;;;;;8.40;5.47;;;;;;;5.28;91.45;99514.16;31255956;28;20064;-82
2023/11/20 20:13:33;;;;;;;10.80;5.70;;;;;;;5.20;91.06;99531.53;31227003;28;20443;-77
2023/11/20 20:28:35;;;;;;;8.10;4.97;;;;;;;5.22;90.92;99543.41;31197603;28;20052;-78
2023/11/20 20:43:37;;;;;;;7.13;4.47;;;;;;;4.91;88.37;99555.91;31218464;28;20041;-77
2023/11/20 20:58:39;;;;;;;6.13;3.97;;;;;;;5.02;88.46;99567.34;31213105;28;20136;-77
2023/11/20 21:13:45;;;;;;;8.47;5.73;;;;;;;5.21;90.33;99566.09;31219601;28;20061;-77
2023/11/20 21:28:47;;;;;;;8.63;5.77;;;;;;;5.27;91.00;99577.19;31215648;28;20084;-81
2023/11/20 21:43:49;;;;;;;12.10;5.73;;;;;;;5.21;89.73;99576.09;31231776;28;20251;-80
2023/11/20 21:58:52;;;;;;;12.53;7.07;;;;;;;5.28;93.79;99584.13;31232844;28;20084;-81
2023/11/20 22:13:54;;;;;;;14.20;8.10;;;;;;;4.97;91.77;99608.13;31247918;28;20054;-79
2023/11/20 22:28:56;;;;;;;13.50;7.57;;;;;;;5.13;93.49;99621.88;31254651;28;20495;-81
2023/11/20 22:43:58;;;;;;;18.23;7.73;;;;;;;5.03;94.04;99621.94;31237534;28;20046;-81
2023/11/20 22:59:00;;;;;;;11.90;6.77;;;;;;;5.21;96.88;99641.44;31230649;28;20104;-79
2023/11/20 23:14:03;;;;;;;16.03;7.53;;;;;;;5.09;91.05;99648.03;31229249;28;20084;-82
2023/11/20 23:29:06;;;;;;;10.30;5.87;;;;;;;5.20;92.31;99647.22;31240016;28;20049;-80
2023/11/20 23:44:08;;;;;;;7.83;4.67;;;;;;;5.07;91.37;99681.88;31217020;28;20049;-83
2023/11/20 23:59:10;;;;;;;10.10;5.33;;;;;;;5.20;91.79;99687.59;31244636;28;20057;-81
